Time;durP1;ratioP1;P1;durP2;ratioP2;P2;SDS_P1;SDS_P2;PMS_P1;PMS_P2;Temp;Humidity;BMP_temperature;BMP_pressure;BME280_temperature;BME280_humidity;BME280_pressure;Samples;Min_cycle;Max_cycle;Signal;HPM_P1;HPM_P2
2023/09/13 00:01:02;;;;;;;;;;;17.20;99.90;;;;;;5072515;28;20047;-67
2023/09/13 00:03:27;;;;;;;5.03;0.90;;;17.30;99.90;;;;;;5083027;28;20292;-67
2023/09/13 00:05:53;;;;;;;4.38;1.00;;;17.30;99.90;;;;;;5084141;28;20398;-68
2023/09/13 00:08:18;;;;;;;1.75;0.77;;;17.30;99.90;;;;;;5103702;28;20081;-67
2023/09/13 00:10:44;;;;;;;2.65;0.70;;;17.30;99.90;;;;;;5099567;28;20423;-67
2023/09/13 00:13:11;;;;;;;5.10;1.10;;;17.30;99.90;;;;;;5113677;28;20047;-67
2023/09/13 00:15:42;;;;;;;4.28;0.73;;;17.30;99.90;;;;;;5092484;28;20059;-67
2023/09/13 00:18:07;;;;;;;2.47;0.98;;;17.20;99.90;;;;;;5094945;28;20170;-67
2023/09/13 00:20:33;;;;;;;;;;;17.20;99.90;;;;;;5082890;28;20123;-66
2023/09/13 00:22:58;;;;;;;1.17;0.68;;;17.20;99.90;;;;;;5089140;28;19923;-66
2023/09/13 00:25:24;;;;;;;0.90;0.70;;;17.20;99.90;;;;;;5073415;28;20630;-66
2023/09/13 00:27:50;;;;;;;3.85;0.75;;;17.20;99.90;;;;;;5081390;28;20044;-66
2023/09/13 00:30:15;;;;;;;;;;;17.20;99.90;;;;;;5074737;28;20024;-67
2023/09/13 00:32:41;;;;;;;2.72;1.05;;;17.20;99.90;;;;;;5070292;28;19920;-66
2023/09/13 00:35:06;;;;;;;;;;;17.10;99.90;;;;;;5076166;28;20126;-66
2023/09/13 00:37:32;;;;;;;3.65;1.20;;;17.10;99.90;;;;;;5087523;28;19951;-66
2023/09/13 00:39:57;;;;;;;6.18;1.17;;;17.10;99.90;;;;;;5084285;28;20498;-66
2023/09/13 00:42:23;;;;;;;3.28;1.30;;;17.00;99.90;;;;;;5086044;28;20089;-65
2023/09/13 00:44:49;;;;;;;;;;;17.00;99.90;;;;;;5087346;28;20040;-66
2023/09/13 00:47:16;;;;;;;2.58;1.00;;;17.00;99.90;;;;;;5090227;28;19928;-66
2023/09/13 00:49:42;;;;;;;3.42;0.77;;;17.00;99.90;;;;;;5076191;28;20111;-66
2023/09/13 00:52:07;;;;;;;;;;;17.00;99.90;;;;;;5086513;28;20514;-66
2023/09/13 00:54:33;;;;;;;2.15;0.90;;;17.00;99.90;;;;;;5075436;28;19971;-66
2023/09/13 00:56:59;;;;;;;2.75;0.80;;;16.90;99.90;;;;;;5088177;28;20036;-66
2023/09/13 00:59:25;;;;;;;;;;;17.00;99.90;;;;;;5088029;28;20270;-66
2023/09/13 01:01:50;;;;;;;3.28;0.82;;;17.00;99.90;;;;;;5091049;28;19919;-66
2023/09/13 01:04:16;;;;;;;1.33;0.75;;;17.00;99.90;;;;;;5087031;28;20141;-66
2023/09/13 01:06:42;;;;;;;0.80;0.80;;;17.00;99.90;;;;;;5081370;28;20044;-66
2023/09/13 01:09:26;;;;;;;3.05;0.93;;;17.00;99.90;;;;;;5086270;28;20131;-67
2023/09/13 01:12:05;;;;;;;1.58;0.90;;;17.00;99.90;;;;;;5095148;28;20039;-67
2023/09/13 01:14:40;;;;;;;3.63;1.13;;;17.00;99.90;;;;;;5084828;28;20036;-67
2023/09/13 01:17:19;;;;;;;4.18;1.00;;;17.00;99.90;;;;;;5085600;28;20044;-67
2023/09/13 01:20:11;;;;;;;1.77;1.08;;;16.90;99.90;;;;;;5083338;28;20160;-66
2023/09/13 01:23:03;;;;;;;1.33;0.60;;;16.90;99.90;;;;;;5090352;28;20103;-67
2023/09/13 01:25:45;;;;;;;2.47;0.90;;;16.90;99.90;;;;;;5088418;28;20043;-67
2023/09/13 01:28:17;;;;;;;3.20;1.00;;;16.90;99.90;;;;;;5082286;28;20072;-67
2023/09/13 01:30:43;;;;;;;3.35;1.15;;;17.00;99.90;;;;;;5071142;28;20039;-67
2023/09/13 01:33:09;;;;;;;7.55;0.80;;;17.00;99.90;;;;;;5091182;28;20044;-67
2023/09/13 01:35:35;;;;;;;;;;;16.90;99.90;;;;;;5080261;28;20113;-67
2023/09/13 01:38:00;;;;;;;2.55;0.82;;;16.90;99.90;;;;;;5084569;28;20007;-67
2023/09/13 01:40:31;;;;;;;4.53;1.75;;;16.90;99.90;;;;;;5084234;28;20040;-67
2023/09/13 01:43:02;;;;;;;5.40;1.10;;;16.90;99.90;;;;;;5080278;28;20044;-67
2023/09/13 01:45:31;;;;;;;2.97;1.20;;;16.90;99.90;;;;;;5078186;28;20048;-67
2023/09/13 01:47:58;;;;;;;3.78;1.65;;;16.90;99.90;;;;;;5080803;28;20039;-67
2023/09/13 01:50:23;;;;;;;5.20;1.45;;;16.90;99.90;;;;;;5079697;28;20111;-67
2023/09/13 01:52:49;;;;;;;;;;;17.00;99.90;;;;;;5077857;28;20123;-67
2023/09/13 01:55:14;;;;;;;4.07;1.20;;;17.00;99.90;;;;;;5084684;28;19924;-67
2023/09/13 01:57:40;;;;;;;3.13;1.38;;;17.00;99.90;;;;;;5085358;28;20039;-67
2023/09/13 02:00:06;;;;;;;;;;;17.00;99.90;;;;;;5080504;28;20036;-67
2023/09/13 02:02:31;;;;;;;11.10;1.55;;;17.00;99.90;;;;;;5083021;28;19926;-67
2023/09/13 02:04:57;;;;;;;5.75;1.63;;;17.00;99.90;;;;;;5089630;28;20089;-67
2023/09/13 02:07:23;;;;;;;4.43;1.30;;;17.00;99.90;;;;;;5088374;28;20722;-67
2023/09/13 02:09:48;;;;;;;;;;;17.00;99.90;;;;;;5079912;28;20044;-67
2023/09/13 02:12:14;;;;;;;5.80;1.15;;;17.00;99.90;;;;;;5079154;28;19916;-67
2023/09/13 02:14:40;;;;;;;3.70;1.75;;;17.00;99.90;;;;;;5074485;28;20041;-67
2023/09/13 02:17:11;;;;;;;9.05;1.45;;;17.00;99.90;;;;;;5089523;28;20044;-67
2023/09/13 02:19:37;;;;;;;4.88;1.52;;;17.00;99.90;;;;;;5071353;28;20037;-67
2023/09/13 02:22:02;;;;;;;;;;;17.00;99.90;;;;;;5086185;28;20119;-67
2023/09/13 02:24:28;;;;;;;4.00;1.30;;;17.00;99.90;;;;;;5076160;28;19920;-67
2023/09/13 02:26:57;;;;;;;4.88;1.40;;;17.00;99.90;;;;;;5074745;28;20063;-67
2023/09/13 02:29:23;;;;;;;5.55;1.63;;;16.90;99.90;;;;;;5052502;28;20044;-67
2023/09/13 02:31:49;;;;;;;8.30;1.38;;;16.90;99.90;;;;;;5076585;28;20043;-67
2023/09/13 02:34:14;;;;;;;;;;;16.90;99.90;;;;;;5081882;28;20097;-67
2023/09/13 02:36:40;;;;;;;4.55;1.27;;;16.90;99.90;;;;;;5085356;28;19970;-67
2023/09/13 02:39:09;;;;;;;0.73;0.50;;;16.90;99.90;;;;;;5073573;28;20047;-66
2023/09/13 02:41:35;;;;;;;1.45;0.70;;;16.90;99.90;;;;;;5076783;28;20457;-67
2023/09/13 02:44:01;;;;;;;1.50;0.65;;;16.90;99.90;;;;;;5070931;28;20048;-66
2023/09/13 02:46:26;;;;;;;;;;;16.90;99.90;;;;;;5075968;28;20658;-66
2023/09/13 02:48:52;;;;;;;1.80;1.45;;;16.90;99.90;;;;;;5076790;28;19920;-66
2023/09/13 02:51:18;;;;;;;;;;;16.90;99.90;;;;;;5072171;28;20029;-66
2023/09/13 02:53:43;;;;;;;3.90;1.00;;;16.90;99.90;;;;;;5084938;28;20017;-66
2023/09/13 02:56:09;;;;;;;1.90;0.98;;;16.90;99.90;;;;;;5079068;28;20471;-67
2023/09/13 02:58:35;;;;;;;1.88;1.15;;;16.90;99.90;;;;;;5059429;28;20040;-66
2023/09/13 03:01:03;;;;;;;;;;;16.90;99.90;;;;;;5078871;28;20040;-66
2023/09/13 03:03:32;;;;;;;2.75;1.55;;;16.80;99.90;;;;;;5088152;28;19916;-67
2023/09/13 03:06:12;;;;;;;1.35;1.10;;;16.90;99.90;;;;;;5085117;28;20546;-66
2023/09/13 03:08:38;;;;;;;1.77;1.42;;;16.80;99.90;;;;;;5073530;28;20429;-66
2023/09/13 03:11:17;;;;;;;;;;;16.80;99.90;;;;;;5080542;28;20067;-66
2023/09/13 03:13:43;;;;;;;5.72;2.22;;;16.80;99.90;;;;;;5082502;28;20295;-66
2023/09/13 03:16:21;;;;;;;5.32;1.73;;;16.70;99.90;;;;;;5073183;28;20040;-66
2023/09/13 03:18:49;;;;;;;2.42;2.10;;;16.70;99.90;;;;;;5066596;28;20052;-66
2023/09/13 03:21:20;;;;;;;3.13;2.10;;;16.70;99.90;;;;;;5087118;28;20048;-67
2023/09/13 03:23:48;;;;;;;4.30;2.40;;;16.70;99.90;;;;;;5083840;28;20423;-67
2023/09/13 03:26:25;;;;;;;5.75;2.80;;;16.70;99.90;;;;;;5066438;28;20102;-66
2023/09/13 03:28:55;;;;;;;4.38;2.75;;;16.60;99.90;;;;;;5085608;28;20102;-65
2023/09/13 03:31:23;;;;;;;6.03;2.60;;;16.50;99.90;;;;;;5095513;28;20036;-66
2023/09/13 03:33:50;;;;;;;6.10;2.92;;;16.50;99.90;;;;;;5083878;28;20051;-65
2023/09/13 03:36:16;;;;;;;4.25;2.47;;;16.50;99.90;;;;;;5083000;28;20051;-66
2023/09/13 03:38:43;;;;;;;5.20;2.33;;;16.50;99.90;;;;;;5083569;28;20527;-64
2023/09/13 03:41:11;;;;;;;5.18;2.70;;;16.50;99.90;;;;;;5084984;28;20130;-65
2023/09/13 03:43:37;;;;;;;8.07;2.78;;;16.60;99.90;;;;;;5078843;28;20093;-65
2023/09/13 03:46:06;;;;;;;;;;;16.60;99.90;;;;;;5085064;28;20054;-65
2023/09/13 03:48:33;;;;;;;3.20;2.20;;;16.50;99.90;;;;;;5085376;28;20045;-65
2023/09/13 03:50:59;;;;;;;5.60;2.60;;;16.50;99.90;;;;;;5084508;28;20127;-65
2023/09/13 03:53:24;;;;;;;;;;;16.50;99.90;;;;;;5082323;28;20131;-65
2023/09/13 03:55:51;;;;;;;5.07;2.67;;;16.50;99.90;;;;;;5086489;28;19915;-65
2023/09/13 03:58:16;;;;;;;6.88;2.42;;;16.50;99.90;;;;;;5085550;28;20041;-65
2023/09/13 04:00:42;;;;;;;;;;;16.50;99.90;;;;;;5099056;28;20063;-65
2023/09/13 04:03:07;;;;;;;5.40;2.90;;;16.50;99.90;;;;;;5087783;28;19969;-65
2023/09/13 04:05:33;;;;;;;9.68;2.90;;;16.40;99.90;;;;;;5068841;28;20047;-66
2023/09/13 04:07:59;;;;;;;;;;;16.40;99.90;;;;;;5088681;28;20043;-66
2023/09/13 04:10:24;;;;;;;5.95;2.30;;;16.40;99.90;;;;;;5088648;28;19949;-65
2023/09/13 04:12:50;;;;;;;;;;;16.40;99.90;;;;;;5090459;28;20032;-66
2023/09/13 04:15:16;;;;;;;3.92;2.50;;;16.40;99.90;;;;;;5075876;28;19961;-66
2023/09/13 04:17:42;;;;;;;11.95;2.80;;;16.40;99.90;;;;;;5080560;28;20048;-66
2023/09/13 04:20:08;;;;;;;;;;;16.40;99.90;;;;;;5070091;28;20521;-65
2023/09/13 04:22:33;;;;;;;6.05;3.50;;;16.30;99.90;;;;;;5080932;28;20368;-66
2023/09/13 04:24:59;;;;;;;4.82;3.00;;;16.30;99.90;;;;;;5071814;28;20093;-66
2023/09/13 04:27:25;;;;;;;9.52;3.45;;;16.30;99.90;;;;;;5080196;28;20349;-65
2023/09/13 04:29:52;;;;;;;5.40;3.67;;;16.30;99.90;;;;;;5072443;28;20090;-65
2023/09/13 04:32:19;;;;;;;9.32;3.38;;;16.30;99.90;;;;;;5081368;28;20496;-65
2023/09/13 04:34:46;;;;;;;6.65;4.18;;;16.40;99.90;;;;;;5085423;28;20044;-65
2023/09/13 04:37:13;;;;;;;4.88;3.53;;;16.40;99.90;;;;;;5080290;28;20059;-66
2023/09/13 04:39:38;;;;;;;4.82;3.78;;;16.40;99.90;;;;;;5073224;28;20411;-65
2023/09/13 04:42:05;;;;;;;;;;;16.40;99.90;;;;;;5072897;28;20036;-66
2023/09/13 04:44:30;;;;;;;6.25;4.20;;;16.40;99.90;;;;;;5076039;28;19920;-66
2023/09/13 04:46:57;;;;;;;8.00;5.25;;;16.30;99.90;;;;;;5079204;28;20052;-66
2023/09/13 04:49:24;;;;;;;9.68;6.75;;;16.40;99.90;;;;;;5072543;28;20071;-66
2023/09/13 04:51:49;;;;;;;9.82;7.32;;;16.40;99.90;;;;;;5075070;28;20042;-65
2023/09/13 04:54:15;;;;;;;;;;;16.40;99.90;;;;;;5083709;28;20036;-66
2023/09/13 04:56:40;;;;;;;15.23;10.43;;;16.40;99.90;;;;;;5073613;28;19952;-66
2023/09/13 04:59:06;;;;;;;23.45;14.45;;;16.40;99.90;;;;;;5078117;28;20036;-66
2023/09/13 05:01:31;;;;;;;;;;;16.40;99.90;;;;;;5096377;28;20396;-66
2023/09/13 05:04:00;;;;;;;25.45;15.35;;;16.40;99.90;;;;;;5079715;28;19920;-66
2023/09/13 05:06:25;;;;;;;32.85;18.02;;;16.40;99.90;;;;;;5087056;28;20160;-66
2023/09/13 05:08:54;;;;;;;;;;;16.50;99.90;;;;;;5078325;28;20087;-66
2023/09/13 05:11:20;;;;;;;29.67;19.15;;;16.50;99.90;;;;;;5082033;28;19983;-66
2023/09/13 05:13:47;;;;;;;;;;;16.50;99.90;;;;;;5082301;28;20076;-66
2023/09/13 05:16:19;;;;;;;34.42;20.15;;;16.50;99.90;;;;;;5093001;28;19916;-66
2023/09/13 05:18:48;;;;;;;33.92;21.02;;;16.50;99.90;;;;;;5085307;28;20044;-65
2023/09/13 05:21:14;;;;;;;31.90;21.25;;;16.60;99.90;;;;;;5079017;28;20394;-65
2023/09/13 05:23:40;;;;;;;36.70;23.45;;;16.50;99.90;;;;;;5076457;28;20512;-64
2023/09/13 05:26:06;;;;;;;;;;;16.50;99.90;;;;;;5080502;28;20070;-64
2023/09/13 05:28:33;;;;;;;38.70;23.52;;;16.60;99.90;;;;;;5076295;28;20387;-63
2023/09/13 05:31:00;;;;;;;37.25;22.67;;;16.50;99.90;;;;;;5088173;28;20433;-64
2023/09/13 05:33:26;;;;;;;43.00;24.27;;;16.50;99.90;;;;;;5083312;28;20051;-64
2023/09/13 05:35:52;;;;;;;35.67;21.15;;;16.50;99.90;;;;;;5086344;28;20123;-66
2023/09/13 05:38:18;;;;;;;33.85;20.70;;;16.50;99.90;;;;;;5081007;28;20380;-65
2023/09/13 05:40:43;;;;;;;;;;;16.50;99.90;;;;;;5059759;28;20549;-65
2023/09/13 05:43:09;;;;;;;29.63;17.40;;;16.50;99.90;;;;;;5090649;28;19917;-64
2023/09/13 05:45:35;;;;;;;28.67;16.83;;;16.50;99.90;;;;;;5080982;28;20626;-65
2023/09/13 05:48:02;;;;;;;37.58;20.10;;;16.50;99.90;;;;;;5084609;28;20040;-66
2023/09/13 05:50:27;;;;;;;27.35;15.70;;;16.50;99.90;;;;;;5084387;28;20044;-66
2023/09/13 05:52:53;;;;;;;;;;;16.40;99.90;;;;;;5079897;28;21033;-66
2023/09/13 05:55:19;;;;;;;24.10;14.90;;;16.50;99.90;;;;;;5081730;28;20004;-68
2023/09/13 05:57:46;;;;;;;25.48;15.15;;;16.50;99.90;;;;;;5086379;28;20044;-68
2023/09/13 06:00:13;;;;;;;28.20;16.80;;;16.50;99.90;;;;;;5092016;28;20039;-66
2023/09/13 06:02:39;;;;;;;28.08;16.45;;;16.50;99.90;;;;;;5102879;28;20042;-65
2023/09/13 06:05:05;;;;;;;;;;;16.50;99.90;;;;;;5083280;28;20430;-65
2023/09/13 06:07:30;;;;;;;28.23;16.02;;;16.50;99.90;;;;;;5102030;28;19959;-67
2023/09/13 06:09:58;;;;;;;;;;;16.60;99.90;;;;;;5073093;28;20048;-67
2023/09/13 06:12:24;;;;;;;28.08;16.13;;;16.60;99.90;;;;;;5102852;28;19920;-65
2023/09/13 06:14:51;;;;;;;;;;;16.60;99.90;;;;;;5088395;28;20519;-65
2023/09/13 06:17:17;;;;;;;30.08;16.48;;;16.70;99.90;;;;;;5097915;28;19923;-65
2023/09/13 06:19:42;;;;;;;;;;;16.60;99.90;;;;;;5080802;28;20036;-66
2023/09/13 06:22:08;;;;;;;28.17;16.40;;;16.60;99.90;;;;;;5078187;28;19920;-66
2023/09/13 06:24:35;;;;;;;36.53;19.30;;;16.60;99.90;;;;;;5087173;28;20558;-65
2023/09/13 06:27:01;;;;;;;30.75;17.58;;;16.60;99.90;;;;;;5083131;28;20040;-65
2023/09/13 06:29:26;;;;;;;;;;;16.60;99.90;;;;;;5081387;28;20047;-65
2023/09/13 06:31:54;;;;;;;36.33;19.30;;;16.70;99.90;;;;;;5075704;28;19973;-65
2023/09/13 06:34:19;;;;;;;34.30;20.17;;;16.70;99.90;;;;;;5080495;28;20423;-66
2023/09/13 06:36:46;;;;;;;;;;;16.60;99.90;;;;;;5095231;28;20055;-66
2023/09/13 06:39:12;;;;;;;32.65;17.73;;;16.60;99.90;;;;;;5083468;28;19990;-66
2023/09/13 06:41:37;;;;;;;34.53;19.05;;;16.60;99.90;;;;;;5088776;28;20052;-65
2023/09/13 06:44:08;;;;;;;37.70;17.75;;;16.60;99.90;;;;;;5089672;28;20419;-66
2023/09/13 06:46:38;;;;;;;41.47;18.58;;;16.70;99.90;;;;;;5083270;28;20044;-67
2023/09/13 06:49:04;;;;;;;35.20;19.27;;;16.70;99.90;;;;;;5085276;28;20036;-66
2023/09/13 06:51:30;;;;;;;33.83;18.45;;;16.70;99.90;;;;;;5083341;28;20511;-66
2023/09/13 06:53:55;;;;;;;;;;;16.70;99.90;;;;;;5080876;28;20037;-65
2023/09/13 06:56:21;;;;;;;24.35;13.93;;;16.60;99.90;;;;;;5093780;28;19920;-67
2023/09/13 06:58:47;;;;;;;;;;;16.60;99.90;;;;;;5082737;28;20090;-65
2023/09/13 07:01:13;;;;;;;23.20;14.00;;;16.60;99.90;;;;;;5079704;28;19927;-67
2023/09/13 07:03:39;;;;;;;24.88;14.63;;;16.60;99.90;;;;;;5085408;28;20039;-67
2023/09/13 07:06:04;;;;;;;;;;;16.60;99.90;;;;;;5082280;28;20044;-66
2023/09/13 07:08:30;;;;;;;24.23;13.07;;;16.70;99.90;;;;;;5083166;28;20002;-66
2023/09/13 07:10:58;;;;;;;24.92;14.68;;;16.70;99.90;;;;;;5074065;28;20122;-67
2023/09/13 07:13:25;;;;;;;;;;;16.70;99.90;;;;;;5080442;28;20131;-66
2023/09/13 07:15:50;;;;;;;22.43;12.97;;;16.80;99.90;;;;;;5086206;28;19947;-66
2023/09/13 07:18:17;;;;;;;31.50;16.67;;;16.80;99.90;;;;;;5084976;28;20101;-66
2023/09/13 07:20:42;;;;;;;28.50;18.10;;;16.70;99.90;;;;;;5079917;28;20093;-67
2023/09/13 07:23:09;;;;;;;;;;;16.80;99.90;;;;;;5083991;28;20040;-66
2023/09/13 07:25:34;;;;;;;32.28;18.58;;;16.80;99.90;;;;;;5080821;28;20383;-66
2023/09/13 07:28:00;;;;;;;;;;;16.90;99.90;;;;;;5085322;28;20039;-66
2023/09/13 07:30:27;;;;;;;32.85;19.25;;;16.90;99.90;;;;;;5088933;28;19916;-66
2023/09/13 07:32:53;;;;;;;30.92;18.38;;;17.00;99.90;;;;;;5086881;28;20036;-65
2023/09/13 07:35:20;;;;;;;;;;;17.10;99.90;;;;;;5086929;28;20480;-66
2023/09/13 07:37:46;;;;;;;38.13;22.50;;;17.20;99.90;;;;;;5103476;28;19920;-65
2023/09/13 07:40:12;;;;;;;38.88;21.30;;;17.10;99.90;;;;;;5086402;28;20036;-64
2023/09/13 07:42:38;;;;;;;;;;;17.20;99.90;;;;;;5089908;28;20047;-65
2023/09/13 07:45:04;;;;;;;41.97;21.40;;;17.20;99.90;;;;;;5089534;28;19959;-65
2023/09/13 07:47:30;;;;;;;38.53;22.70;;;17.10;99.90;;;;;;5099415;28;20317;-66
2023/09/13 07:49:59;;;;;;;;;;;17.00;99.90;;;;;;5088571;28;20075;-66
2023/09/13 07:52:25;;;;;;;32.45;19.40;;;17.00;99.90;;;;;;5083969;28;20023;-65
2023/09/13 07:54:51;;;;;;;;;;;17.00;99.90;;;;;;5081751;28;20044;-65
2023/09/13 07:57:17;;;;;;;28.63;17.52;;;17.00;99.90;;;;;;5098913;28;19920;-66
2023/09/13 07:59:42;;;;;;;36.90;20.85;;;17.10;99.90;;;;;;5076689;28;20091;-65
2023/09/13 08:02:08;;;;;;;;;;;17.10;99.90;;;;;;5090274;28;20135;-66
2023/09/13 08:04:34;;;;;;;31.35;18.77;;;17.10;99.90;;;;;;5082846;28;19916;-66
2023/09/13 08:06:59;;;;;;;;;;;17.10;99.90;;;;;;5087595;28;20473;-66
2023/09/13 08:09:26;;;;;;;38.78;21.92;;;17.10;99.90;;;;;;5079742;28;19926;-65
2023/09/13 08:11:52;;;;;;;37.00;21.48;;;17.10;99.90;;;;;;5088449;28;20118;-65
2023/09/13 08:14:18;;;;;;;38.38;22.73;;;17.20;99.90;;;;;;5085800;28;20134;-65
2023/09/13 08:16:44;;;;;;;39.20;25.27;;;17.20;99.90;;;;;;5085667;28;20040;-65
2023/09/13 08:19:10;;;;;;;;;;;17.20;99.90;;;;;;5082151;28;20637;-63
2023/09/13 08:21:36;;;;;;;38.83;24.33;;;17.20;99.90;;;;;;5090119;28;20281;-66
2023/09/13 08:24:03;;;;;;;39.50;24.05;;;17.20;99.90;;;;;;5085822;28;20040;-66
2023/09/13 08:26:30;;;;;;;41.00;23.88;;;17.20;99.90;;;;;;5083421;28;20045;-66
2023/09/13 08:28:56;;;;;;;40.08;26.58;;;17.30;99.90;;;;;;5088776;28;20066;-65
2023/09/13 08:31:23;;;;;;;;;;;17.30;99.90;;;;;;5078224;28;20495;-65
2023/09/13 08:33:49;;;;;;;39.60;24.92;;;17.30;99.90;;;;;;5083541;28;19932;-66
2023/09/13 08:36:17;;;;;;;;;;;17.30;99.90;;;;;;5084938;28;20161;-67
2023/09/13 08:38:42;;;;;;;43.33;26.90;;;17.40;99.90;;;;;;5090204;28;19916;-65
2023/09/13 08:41:08;;;;;;;;;;;17.50;99.90;;;;;;5091395;28;20067;-64
2023/09/13 08:43:36;;;;;;;37.53;23.80;;;17.50;99.90;;;;;;5080827;28;20003;-63
2023/09/13 08:46:02;;;;;;;40.63;25.77;;;17.50;99.90;;;;;;5076074;28;20583;-65
2023/09/13 08:48:29;;;;;;;39.15;25.50;;;17.60;99.90;;;;;;5084738;28;20040;-62
2023/09/13 08:50:55;;;;;;;51.60;26.67;;;17.60;99.90;;;;;;5085877;28;20035;-67
2023/09/13 08:53:22;;;;;;;;;;;17.60;99.90;;;;;;5074975;28;20078;-64
2023/09/13 08:55:48;;;;;;;;;;;17.60;99.90;;;;;;5095576;28;19919;-64
2023/09/13 08:58:14;;;;;;;35.83;21.35;;;17.60;99.90;;;;;;5088214;28;20298;-63
2023/09/13 09:00:41;;;;;;;34.85;22.77;;;17.60;99.90;;;;;;5071075;28;20040;-67
2023/09/13 09:03:12;;;;;;;37.92;24.02;;;17.70;99.90;;;;;;5083473;28;20820;-68
2023/09/13 09:05:38;;;;;;;40.55;24.95;;;17.90;99.90;;;;;;5084831;28;20039;-66
2023/09/13 09:08:05;;;;;;;36.00;23.70;;;17.90;99.90;;;;;;5084090;28;20033;-65
2023/09/13 09:10:31;;;;;;;38.58;24.35;;;18.00;99.90;;;;;;5078167;28;20051;-65
2023/09/13 09:12:58;;;;;;;33.55;22.55;;;17.90;99.90;;;;;;5086578;28;20058;-65
2023/09/13 09:15:26;;;;;;;40.25;24.83;;;18.00;99.90;;;;;;5084515;28;20052;-65
2023/09/13 09:17:53;;;;;;;40.88;25.05;;;17.90;99.90;;;;;;5085460;28;20106;-67
2023/09/13 09:20:20;;;;;;;38.13;24.00;;;17.90;99.90;;;;;;5077326;28;20172;-67
2023/09/13 09:22:46;;;;;;;39.05;23.85;;;17.80;99.90;;;;;;5097731;28;20688;-67
2023/09/13 09:25:12;;;;;;;;;;;17.70;99.90;;;;;;5082872;28;20048;-66
2023/09/13 09:27:39;;;;;;;35.30;23.17;;;17.60;99.90;;;;;;5090351;28;19927;-66
2023/09/13 09:30:07;;;;;;;37.35;23.60;;;17.60;99.90;;;;;;5075061;28;20131;-66
2023/09/13 09:32:35;;;;;;;33.85;20.42;;;17.60;99.90;;;;;;5093159;28;20032;-66
2023/09/13 09:35:04;;;;;;;36.10;22.13;;;17.50;99.90;;;;;;5076136;28;20040;-66
2023/09/13 09:37:31;;;;;;;39.38;23.55;;;17.50;99.90;;;;;;5090837;28;20040;-66
2023/09/13 09:39:56;;;;;;;33.80;21.73;;;17.40;99.90;;;;;;5083904;28;20105;-66
2023/09/13 09:42:22;;;;;;;;;;;17.20;99.90;;;;;;5086380;28;20048;-66
2023/09/13 09:44:48;;;;;;;30.88;19.55;;;17.20;99.90;;;;;;5077419;28;19916;-67
2023/09/13 09:47:14;;;;;;;31.83;21.80;;;17.20;99.90;;;;;;5088489;28;20377;-67
2023/09/13 09:49:41;;;;;;;31.98;20.83;;;17.30;99.90;;;;;;5075671;28;20036;-67
2023/09/13 09:52:07;;;;;;;29.50;19.25;;;17.20;99.90;;;;;;5083664;28;20048;-66
2023/09/13 09:54:34;;;;;;;28.48;18.90;;;17.40;99.90;;;;;;5086402;28;20060;-66
2023/09/13 09:56:59;;;;;;;26.55;18.10;;;17.60;99.90;;;;;;5087717;28;20184;-67
2023/09/13 09:59:28;;;;;;;;;;;18.00;99.90;;;;;;5077821;28;20067;-66
2023/09/13 10:01:58;;;;;;;27.00;17.35;;;18.20;99.90;;;;;;5073710;28;19924;-66
2023/09/13 10:04:24;;;;;;;29.65;18.55;;;18.40;99.90;;;;;;5075967;28;20051;-66
2023/09/13 10:07:03;;;;;;;;;;;18.40;99.90;;;;;;5082101;28;20131;-66
2023/09/13 10:09:39;;;;;;;28.50;17.77;;;18.40;99.90;;;;;;5081456;28;19949;-66
2023/09/13 10:12:09;;;;;;;25.83;17.75;;;18.50;99.90;;;;;;5073698;28;20036;-66
2023/09/13 10:14:37;;;;;;;23.73;18.10;;;18.50;99.90;;;;;;5068665;28;20048;-65
2023/09/13 10:17:04;;;;;;;25.40;16.52;;;18.70;99.90;;;;;;5068677;28;20044;-66
2023/09/13 10:19:31;;;;;;;28.80;18.33;;;18.70;99.90;;;;;;5070800;28;20063;-66
2023/09/13 10:21:58;;;;;;;25.33;16.45;;;18.80;99.90;;;;;;5079789;28;20039;-65
2023/09/13 10:24:27;;;;;;;26.60;16.77;;;18.80;99.90;;;;;;5080164;28;20449;-65
2023/09/13 10:26:54;;;;;;;21.75;15.57;;;18.80;99.90;;;;;;5069898;28;20048;-66
2023/09/13 10:30:03;;;;;;;27.52;16.90;;;18.80;99.90;;;;;;5076437;28;20042;-66
2023/09/13 10:32:42;;;;;;;24.95;15.65;;;18.70;99.90;;;;;;5051763;28;20110;-68
2023/09/13 10:35:08;;;;;;;21.33;14.57;;;18.60;99.90;;;;;;5075427;28;20094;-68
2023/09/13 10:37:50;;;;;;;;;;;18.60;99.90;;;;;;5076781;28;20040;-67
2023/09/13 10:40:50;;;;;;;20.40;13.23;;;18.70;99.90;;;;;;5076969;28;20037;-65
2023/09/13 10:43:17;;;;;;;26.40;13.80;;;18.80;99.90;;;;;;5074418;28;20040;-65
2023/09/13 10:45:43;;;;;;;17.77;12.32;;;18.80;99.90;;;;;;5070470;28;20312;-65
2023/09/13 10:48:09;;;;;;;19.92;12.27;;;19.10;99.90;;;;;;5071137;28;20483;-65
2023/09/13 10:50:44;;;;;;;14.10;10.30;;;19.40;99.90;;;;;;5069149;28;20174;-67
2023/09/13 10:53:11;;;;;;;15.30;11.23;;;19.50;99.90;;;;;;5087916;28;20028;-67
2023/09/13 10:56:40;;;;;;;17.40;11.73;;;19.60;99.90;;;;;;5071499;28;20302;-67
2023/09/13 10:59:06;;;;;;;21.13;11.25;;;19.60;99.90;;;;;;4993401;28;20053;-66
2023/09/13 11:01:35;;;;;;;15.65;11.45;;;19.70;99.90;;;;;;5060001;28;20033;-68
2023/09/13 11:04:01;;;;;;;19.02;11.73;;;19.70;99.90;;;;;;5077518;28;20057;-67
2023/09/13 11:10:05;;;;;;;17.20;12.20;;;19.50;99.90;;;;;;5040565;28;20049;-66
2023/09/13 11:16:31;;;;;;;20.23;13.27;;;19.20;99.90;;;;;;4991901;28;20053;-66
2023/09/13 11:25:53;;;;;;;24.35;14.80;;;19.00;99.90;;;;;;5040857;28;20106;-66
2023/09/13 11:28:36;;;;;;;18.35;12.93;;;18.90;99.90;;;;;;5067516;28;20045;-66
2023/09/13 11:31:04;;;;;;;23.65;13.82;;;18.80;99.90;;;;;;5062689;28;20039;-65
2023/09/13 11:33:31;;;;;;;27.27;16.10;;;18.70;99.90;;;;;;5065790;28;20478;-65
2023/09/13 11:35:58;;;;;;;26.52;16.60;;;18.90;99.90;;;;;;5063106;28;20392;-65
2023/09/13 11:38:25;;;;;;;20.58;16.52;;;19.10;99.90;;;;;;5065865;28;20044;-65
2023/09/13 11:40:55;;;;;;;19.98;14.43;;;19.30;99.90;;;;;;5067822;28;20078;-66
2023/09/13 11:43:28;;;;;;;22.83;15.55;;;19.60;99.90;;;;;;5058107;28;20040;-67
2023/09/13 11:45:58;;;;;;;18.20;13.48;;;19.70;99.90;;;;;;5066319;28;20040;-66
2023/09/13 11:55:55;;;;;;;21.50;13.93;;;19.70;99.90;;;;;;5056859;28;20039;-66
2023/09/13 11:58:36;;;;;;;26.85;15.45;;;19.50;99.90;;;;;;5070038;28;20153;-68
2023/09/13 12:01:04;;;;;;;20.13;14.13;;;19.30;99.90;;;;;;5059310;28;20032;-66
2023/09/13 12:03:33;;;;;;;18.70;13.98;;;19.10;99.90;;;;;;5066019;28;20049;-67
2023/09/13 12:06:00;;;;;;;20.80;15.25;;;19.10;99.90;;;;;;5062029;28;20569;-66
2023/09/13 12:08:27;;;;;;;21.00;14.50;;;19.10;99.90;;;;;;5064663;28;20075;-66
2023/09/13 12:10:55;;;;;;;20.25;14.52;;;19.00;99.90;;;;;;5068079;28;20551;-66
2023/09/13 12:13:48;;;;;;;19.65;14.15;;;19.00;99.90;;;;;;5074638;28;20094;-67
2023/09/13 12:16:15;;;;;;;22.45;14.93;;;19.10;99.90;;;;;;5063697;28;20480;-67
2023/09/13 12:18:42;;;;;;;21.90;14.45;;;19.20;99.90;;;;;;5065046;28;20048;-68
2023/09/13 12:21:09;;;;;;;17.17;13.95;;;19.50;99.90;;;;;;5072391;28;20048;-68
2023/09/13 12:23:36;;;;;;;19.42;13.75;;;19.70;99.90;;;;;;5072216;28;20401;-66
2023/09/13 12:26:10;;;;;;;19.63;13.13;;;19.60;99.90;;;;;;5069605;28;20048;-66
2023/09/13 12:28:39;;;;;;;22.40;13.98;;;19.50;99.90;;;;;;5063865;28;20060;-67
2023/09/13 12:31:09;;;;;;;17.42;13.55;;;19.30;99.90;;;;;;5073671;28;20173;-66
2023/09/13 12:33:40;;;;;;;18.80;13.45;;;19.30;99.90;;;;;;5076086;28;20029;-68
2023/09/13 12:36:07;;;;;;;19.85;13.85;;;19.20;99.90;;;;;;5063041;28;20048;-66
2023/09/13 12:38:53;;;;;;;19.23;13.48;;;19.20;99.90;;;;;;5064978;28;20244;-67
2023/09/13 12:41:29;;;;;;;18.90;12.07;;;19.10;99.90;;;;;;5066557;28;20037;-66
2023/09/13 12:43:55;;;;;;;18.50;11.85;;;19.00;99.90;;;;;;5065719;28;20048;-66
2023/09/13 12:46:22;;;;;;;15.27;11.32;;;18.90;99.90;;;;;;5075092;28;20564;-67
2023/09/13 12:48:51;;;;;;;14.15;10.88;;;19.00;99.90;;;;;;5066179;28;20055;-67
2023/09/13 12:51:22;;;;;;;16.40;10.80;;;19.10;99.90;;;;;;5062969;28;20035;-68
2023/09/13 12:53:52;;;;;;;15.63;9.90;;;19.20;99.90;;;;;;5062828;28;20083;-66
2023/09/13 12:56:18;;;;;;;16.95;10.98;;;19.30;99.90;;;;;;5066048;28;20058;-67
2023/09/13 12:58:55;;;;;;;17.00;11.23;;;19.20;99.90;;;;;;5066495;28;20037;-65
2023/09/13 13:01:22;;;;;;;16.98;11.85;;;19.10;99.90;;;;;;5062319;28;20058;-66
2023/09/13 13:04:16;;;;;;;16.35;11.13;;;19.10;99.90;;;;;;5062968;28;20484;-67
2023/09/13 13:07:02;;;;;;;15.82;10.90;;;19.00;99.90;;;;;;5059731;28;20776;-67
2023/09/13 13:09:28;;;;;;;12.63;9.48;;;18.80;99.90;;;;;;5062909;28;20116;-68
2023/09/13 13:12:16;;;;;;;12.32;8.60;;;18.60;99.90;;;;;;5069594;28;20048;-66
2023/09/13 13:14:48;;;;;;;11.48;7.43;;;18.50;99.90;;;;;;5066059;28;20521;-68
2023/09/13 13:17:14;;;;;;;11.90;7.93;;;18.30;99.90;;;;;;5062781;28;20052;-69
2023/09/13 13:19:40;;;;;;;;;;;18.10;99.90;;;;;;5075360;28;20117;-67